sensor_id;sensor_type;location;lat;lon;timestamp;pressure;altitude;pressure_sealevel;temperature;humidity
35647;BME280;28680;45.642;13.756;2022-08-30T00:06:32;101341.19;;;26.89;100.00
35647;BME280;28680;45.642;13.756;2022-08-30T00:11:33;101345.84;;;26.62;100.00
35647;BME280;28680;45.642;13.756;2022-08-30T00:13:59;101340.88;;;26.52;100.00
35647;BME280;28680;45.642;13.756;2022-08-30T00:16:26;101344.00;;;26.49;100.00
35647;BME280;28680;45.642;13.756;2022-08-30T00:18:51;101349.38;;;26.42;100.00
35647;BME280;28680;45.642;13.756;2022-08-30T00:21:17;101343.56;;;26.39;100.00
35647;BME280;28680;45.642;13.756;2022-08-30T00:23:43;101340.50;;;26.29;100.00
35647;BME280;28680;45.642;13.756;2022-08-30T00:26:09;101339.03;;;26.33;100.00
35647;BME280;28680;45.642;13.756;2022-08-30T00:28:44;101341.97;;;26.24;100.00
35647;BME280;28680;45.642;13.756;2022-08-30T00:33:46;101336.38;;;26.19;100.00
35647;BME280;28680;45.642;13.756;2022-08-30T00:36:11;101336.41;;;26.13;100.00
35647;BME280;28680;45.642;13.756;2022-08-30T00:38:37;101339.50;;;26.30;100.00
35647;BME280;28680;45.642;13.756;2022-08-30T00:41:03;101334.53;;;26.13;100.00
35647;BME280;28680;45.642;13.756;2022-08-30T00:43:31;101340.53;;;26.15;100.00
35647;BME280;28680;45.642;13.756;2022-08-30T00:49:32;101340.13;;;26.05;100.00
35647;BME280;28680;45.642;13.756;2022-08-30T00:54:37;101348.59;;;25.95;100.00
35647;BME280;28680;45.642;13.756;2022-08-30T00:57:03;101341.34;;;25.82;100.00
35647;BME280;28680;45.642;13.756;2022-08-30T00:59:31;101349.63;;;25.67;100.00
35647;BME280;28680;45.642;13.756;2022-08-30T01:01:57;101347.78;;;25.75;100.00
35647;BME280;28680;45.642;13.756;2022-08-30T01:08:05;101351.25;;;25.48;100.00
35647;BME280;28680;45.642;13.756;2022-08-30T01:14:02;101354.34;;;25.59;100.00
35647;BME280;28680;45.642;13.756;2022-08-30T01:17:19;101352.47;;;25.46;100.00
35647;BME280;28680;45.642;13.756;2022-08-30T01:19:59;101355.59;;;25.56;100.00
35647;BME280;28680;45.642;13.756;2022-08-30T01:25:17;101366.94;;;25.45;100.00
35647;BME280;28680;45.642;13.756;2022-08-30T01:27:52;101363.84;;;25.48;100.00
35647;BME280;28680;45.642;13.756;2022-08-30T01:33:19;101355.56;;;25.36;100.00
35647;BME280;28680;45.642;13.756;2022-08-30T01:38:22;101356.16;;;25.32;100.00
35647;BME280;28680;45.642;13.756;2022-08-30T01:40:49;101353.28;;;25.40;100.00
35647;BME280;28680;45.642;13.756;2022-08-30T01:43:16;101350.19;;;25.36;100.00
35647;BME280;28680;45.642;13.756;2022-08-30T01:45:58;101351.41;;;25.34;100.00
35647;BME280;28680;45.642;13.756;2022-08-30T01:55:44;101349.69;;;25.13;100.00
35647;BME280;28680;45.642;13.756;2022-08-30T02:03:46;101336.72;;;25.23;100.00
35647;BME280;28680;45.642;13.756;2022-08-30T02:06:16;101341.06;;;25.24;100.00
35647;BME280;28680;45.642;13.756;2022-08-30T02:08:43;101337.31;;;25.18;100.00
35647;BME280;28680;45.642;13.756;2022-08-30T02:11:11;101333.97;;;25.03;100.00
35647;BME280;28680;45.642;13.756;2022-08-30T02:13:39;101342.16;;;24.95;100.00
35647;BME280;28680;45.642;13.756;2022-08-30T02:16:07;101343.66;;;25.04;100.00
35647;BME280;28680;45.642;13.756;2022-08-30T02:18:37;101338.31;;;25.10;100.00
35647;BME280;28680;45.642;13.756;2022-08-30T02:21:07;101335.19;;;25.07;100.00
35647;BME280;28680;45.642;13.756;2022-08-30T02:23:34;101333.53;;;24.99;100.00
35647;BME280;28680;45.642;13.756;2022-08-30T02:26:00;101326.88;;;24.95;100.00
35647;BME280;28680;45.642;13.756;2022-08-30T02:28:26;101328.94;;;24.93;100.00
35647;BME280;28680;45.642;13.756;2022-08-30T02:43:31;101315.47;;;24.80;100.00
35647;BME280;28680;45.642;13.756;2022-08-30T02:54:13;101326.56;;;24.63;100.00
35647;BME280;28680;45.642;13.756;2022-08-30T02:57:15;101324.06;;;24.62;100.00
35647;BME280;28680;45.642;13.756;2022-08-30T02:59:41;101327.06;;;24.80;100.00
35647;BME280;28680;45.642;13.756;2022-08-30T03:02:10;101321.34;;;24.55;100.00
35647;BME280;28680;45.642;13.756;2022-08-30T03:04:38;101325.94;;;24.68;100.00
35647;BME280;28680;45.642;13.756;2022-08-30T03:07:06;101326.56;;;24.70;100.00
35647;BME280;28680;45.642;13.756;2022-08-30T03:09:34;101323.94;;;24.77;100.00
35647;BME280;28680;45.642;13.756;2022-08-30T03:12:00;101324.94;;;24.76;100.00
35647;BME280;28680;45.642;13.756;2022-08-30T03:14:26;101325.75;;;24.69;100.00
35647;BME280;28680;45.642;13.756;2022-08-30T03:16:55;101320.63;;;24.75;100.00
35647;BME280;28680;45.642;13.756;2022-08-30T03:19:21;101318.97;;;24.74;100.00
35647;BME280;28680;45.642;13.756;2022-08-30T03:21:48;101317.50;;;24.71;100.00
35647;BME280;28680;45.642;13.756;2022-08-30T03:24:15;101308.59;;;24.64;100.00
35647;BME280;28680;45.642;13.756;2022-08-30T03:36:01;101328.63;;;24.33;100.00
35647;BME280;28680;45.642;13.756;2022-08-30T03:38:27;101335.72;;;24.47;100.00
35647;BME280;28680;45.642;13.756;2022-08-30T03:40:55;101331.16;;;24.48;100.00
35647;BME280;28680;45.642;13.756;2022-08-30T03:43:21;101333.63;;;24.43;100.00
35647;BME280;28680;45.642;13.756;2022-08-30T03:45:50;101330.28;;;24.34;100.00
35647;BME280;28680;45.642;13.756;2022-08-30T03:48:16;101345.56;;;24.40;100.00
35647;BME280;28680;45.642;13.756;2022-08-30T03:50:42;101332.78;;;24.42;100.00
35647;BME280;28680;45.642;13.756;2022-08-30T03:53:09;101337.69;;;24.32;100.00
35647;BME280;28680;45.642;13.756;2022-08-30T03:55:35;101334.97;;;24.25;100.00
35647;BME280;28680;45.642;13.756;2022-08-30T04:06:44;101363.34;;;24.13;100.00
35647;BME280;28680;45.642;13.756;2022-08-30T04:09:10;101358.19;;;24.11;100.00
35647;BME280;28680;45.642;13.756;2022-08-30T04:11:36;101374.06;;;24.13;100.00
35647;BME280;28680;45.642;13.756;2022-08-30T04:14:02;101377.19;;;24.17;100.00
35647;BME280;28680;45.642;13.756;2022-08-30T04:25:21;101397.03;;;24.22;100.00
35647;BME280;28680;45.642;13.756;2022-08-30T04:27:47;101395.25;;;24.29;100.00
35647;BME280;28680;45.642;13.756;2022-08-30T04:30:17;101395.16;;;24.16;100.00
35647;BME280;28680;45.642;13.756;2022-08-30T04:32:46;101395.97;;;24.17;100.00
35647;BME280;28680;45.642;13.756;2022-08-30T04:35:12;101402.59;;;24.21;100.00
35647;BME280;28680;45.642;13.756;2022-08-30T04:41:19;101420.47;;;24.13;100.00
35647;BME280;28680;45.642;13.756;2022-08-30T04:43:49;101412.53;;;24.27;100.00
35647;BME280;28680;45.642;13.756;2022-08-30T04:52:31;101427.56;;;24.21;100.00
35647;BME280;28680;45.642;13.756;2022-08-30T04:54:58;101436.81;;;24.19;100.00
35647;BME280;28680;45.642;13.756;2022-08-30T04:57:26;101434.34;;;24.17;100.00
35647;BME280;28680;45.642;13.756;2022-08-30T04:59:52;101442.13;;;24.12;100.00
35647;BME280;28680;45.642;13.756;2022-08-30T05:09:40;101443.88;;;24.20;100.00
35647;BME280;28680;45.642;13.756;2022-08-30T05:12:06;101445.59;;;24.27;100.00
35647;BME280;28680;45.642;13.756;2022-08-30T05:14:32;101443.56;;;24.36;100.00
35647;BME280;28680;45.642;13.756;2022-08-30T05:54:04;101438.84;;;24.60;100.00
35647;BME280;28680;45.642;13.756;2022-08-30T05:56:34;101426.50;;;24.65;100.00
35647;BME280;28680;45.642;13.756;2022-08-30T05:59:08;101434.19;;;24.75;100.00
35647;BME280;28680;45.642;13.756;2022-08-30T06:50:17;101429.72;;;26.05;100.00
35647;BME280;28680;45.642;13.756;2022-08-30T06:52:49;101425.38;;;26.24;100.00
35647;BME280;28680;45.642;13.756;2022-08-30T06:59:57;101410.44;;;26.42;100.00
35647;BME280;28680;45.642;13.756;2022-08-30T07:05:04;101415.41;;;26.52;100.00
35647;BME280;28680;45.642;13.756;2022-08-30T07:07:30;101416.63;;;26.56;100.00
35647;BME280;28680;45.642;13.756;2022-08-30T07:10:04;101411.69;;;26.59;100.00
35647;BME280;28680;45.642;13.756;2022-08-30T07:12:30;101406.91;;;26.68;100.00
35647;BME280;28680;45.642;13.756;2022-08-30T07:15:06;101410.63;;;26.74;100.00
35647;BME280;28680;45.642;13.756;2022-08-30T07:17:33;101411.84;;;26.78;100.00
35647;BME280;28680;45.642;13.756;2022-08-30T07:20:19;101403.56;;;26.79;100.00
35647;BME280;28680;45.642;13.756;2022-08-30T07:22:47;101394.63;;;26.92;100.00
35647;BME280;28680;45.642;13.756;2022-08-30T07:25:16;101391.66;;;27.07;100.00
35647;BME280;28680;45.642;13.756;2022-08-30T07:27:42;101398.69;;;27.08;100.00
35647;BME280;28680;45.642;13.756;2022-08-30T07:30:11;101399.31;;;27.10;100.00
35647;BME280;28680;45.642;13.756;2022-08-30T07:32:37;101395.13;;;27.21;100.00
35647;BME280;28680;45.642;13.756;2022-08-30T07:35:04;101383.50;;;27.27;100.00
35647;BME280;28680;45.642;13.756;2022-08-30T07:37:30;101377.63;;;27.37;100.00
35647;BME280;28680;45.642;13.756;2022-08-30T07:39:56;101380.31;;;27.44;100.00
35647;BME280;28680;45.642;13.756;2022-08-30T07:42:22;101381.78;;;27.39;100.00
35647;BME280;28680;45.642;13.756;2022-08-30T07:44:48;101381.31;;;27.49;100.00
35647;BME280;28680;45.642;13.756;2022-08-30T07:47:14;101380.63;;;27.60;100.00
35647;BME280;28680;45.642;13.756;2022-08-30T07:49:41;101382.66;;;27.65;100.00
35647;BME280;28680;45.642;13.756;2022-08-30T07:52:07;101367.47;;;27.71;100.00
35647;BME280;28680;45.642;13.756;2022-08-30T07:54:33;101372.22;;;27.75;100.00
35647;BME280;28680;45.642;13.756;2022-08-30T07:57:25;101375.25;;;27.86;100.00
35647;BME280;28680;45.642;13.756;2022-08-30T07:59:52;101368.13;;;27.98;100.00
35647;BME280;28680;45.642;13.756;2022-08-30T08:02:19;101369.56;;;28.00;100.00
35647;BME280;28680;45.642;13.756;2022-08-30T08:05:55;101371.44;;;28.18;100.00
35647;BME280;28680;45.642;13.756;2022-08-30T08:08:37;101366.69;;;28.21;100.00
35647;BME280;28680;45.642;13.756;2022-08-30T08:11:24;101362.09;;;28.21;100.00
35647;BME280;28680;45.642;13.756;2022-08-30T08:14:03;101370.72;;;28.30;100.00
35647;BME280;28680;45.642;13.756;2022-08-30T08:16:32;101357.84;;;28.32;100.00
35647;BME280;28680;45.642;13.756;2022-08-30T08:18:58;101364.84;;;28.58;100.00
35647;BME280;28680;45.642;13.756;2022-08-30T08:21:25;101357.56;;;29.14;100.00
35647;BME280;28680;45.642;13.756;2022-08-30T08:28:10;101361.38;;;29.79;100.00
35647;BME280;28680;45.642;13.756;2022-08-30T08:30:56;101363.19;;;29.54;100.00
35647;BME280;28680;45.642;13.756;2022-08-30T08:33:55;101364.59;;;29.76;100.00
35647;BME280;28680;45.642;13.756;2022-08-30T08:47:22;101355.69;;;30.75;100.00
35647;BME280;28680;45.642;13.756;2022-08-30T08:49:55;101358.50;;;30.92;100.00
35647;BME280;28680;45.642;13.756;2022-08-30T08:52:29;101355.50;;;31.05;100.00
35647;BME280;28680;45.642;13.756;2022-08-30T08:55:20;101357.00;;;30.72;100.00
35647;BME280;28680;45.642;13.756;2022-08-30T08:57:47;101357.41;;;30.52;100.00
35647;BME280;28680;45.642;13.756;2022-08-30T09:00:13;101348.47;;;30.51;100.00
35647;BME280;28680;45.642;13.756;2022-08-30T09:02:59;101349.63;;;30.56;100.00
35647;BME280;28680;45.642;13.756;2022-08-30T09:05:36;101348.94;;;30.48;100.00
35647;BME280;28680;45.642;13.756;2022-08-30T09:08:11;101352.63;;;31.40;100.00
35647;BME280;28680;45.642;13.756;2022-08-30T09:10:42;101342.66;;;31.29;100.00
35647;BME280;28680;45.642;13.756;2022-08-30T09:13:11;101354.88;;;31.15;100.00
35647;BME280;28680;45.642;13.756;2022-08-30T09:15:37;101354.59;;;30.99;100.00
35647;BME280;28680;45.642;13.756;2022-08-30T09:18:07;101352.94;;;30.98;100.00
35647;BME280;28680;45.642;13.756;2022-08-30T10:23:26;101351.75;;;31.23;100.00
35647;BME280;28680;45.642;13.756;2022-08-30T10:36:44;101338.97;;;32.37;100.00
35647;BME280;28680;45.642;13.756;2022-08-30T10:39:21;101323.13;;;31.95;100.00
35647;BME280;28680;45.642;13.756;2022-08-30T10:41:55;101329.28;;;32.24;100.00
35647;BME280;28680;45.642;13.756;2022-08-30T10:44:34;101336.19;;;31.98;100.00
35647;BME280;28680;45.642;13.756;2022-08-30T10:48:13;101332.97;;;32.35;100.00
35647;BME280;28680;45.642;13.756;2022-08-30T10:50:53;101325.78;;;32.07;100.00
35647;BME280;28680;45.642;13.756;2022-08-30T10:56:13;101322.06;;;31.96;100.00
35647;BME280;28680;45.642;13.756;2022-08-30T10:58:46;101324.53;;;31.97;100.00
35647;BME280;28680;45.642;13.756;2022-08-30T11:04:42;101331.53;;;32.98;100.00
35647;BME280;28680;45.642;13.756;2022-08-30T11:13:26;101323.59;;;34.16;100.00
35647;BME280;28680;45.642;13.756;2022-08-30T11:16:36;101321.22;;;34.40;100.00
35647;BME280;28680;45.642;13.756;2022-08-30T11:19:38;101323.34;;;34.28;100.00
35647;BME280;28680;45.642;13.756;2022-08-30T11:22:31;101325.63;;;34.46;100.00
35647;BME280;28680;45.642;13.756;2022-08-30T11:28:07;101331.84;;;35.61;100.00
35647;BME280;28680;45.642;13.756;2022-08-30T11:36:59;101330.50;;;35.74;100.00
35647;BME280;28680;45.642;13.756;2022-08-30T11:42:41;101327.72;;;35.89;100.00
35647;BME280;28680;45.642;13.756;2022-08-30T11:45:44;101329.38;;;35.85;100.00
35647;BME280;28680;45.642;13.756;2022-08-30T11:48:42;101333.75;;;35.76;100.00
35647;BME280;28680;45.642;13.756;2022-08-30T11:57:36;101324.50;;;35.62;100.00
35647;BME280;28680;45.642;13.756;2022-08-30T12:00:24;101322.56;;;35.72;100.00
35647;BME280;28680;45.642;13.756;2022-08-30T12:08:51;101314.75;;;36.41;99.53
35647;BME280;28680;45.642;13.756;2022-08-30T12:13:53;101311.28;;;36.05;100.00
35647;BME280;28680;45.642;13.756;2022-08-30T12:16:42;101303.16;;;36.65;100.00
35647;BME280;28680;45.642;13.756;2022-08-30T12:19:37;101312.09;;;36.26;100.00
35647;BME280;28680;45.642;13.756;2022-08-30T12:22:07;101307.47;;;36.11;100.00
35647;BME280;28680;45.642;13.756;2022-08-30T12:24:45;101306.69;;;35.95;100.00
35647;BME280;28680;45.642;13.756;2022-08-30T12:27:31;101301.22;;;36.00;100.00
35647;BME280;28680;45.642;13.756;2022-08-30T12:30:03;101296.25;;;36.13;100.00
35647;BME280;28680;45.642;13.756;2022-08-30T12:32:31;101291.09;;;36.71;100.00
35647;BME280;28680;45.642;13.756;2022-08-30T12:35:01;101289.75;;;36.74;100.00
35647;BME280;28680;45.642;13.756;2022-08-30T12:37:33;101285.50;;;36.92;100.00
35647;BME280;28680;45.642;13.756;2022-08-30T12:40:16;101284.81;;;36.76;100.00
35647;BME280;28680;45.642;13.756;2022-08-30T12:43:00;101278.31;;;37.01;100.00
35647;BME280;28680;45.642;13.756;2022-08-30T12:45:31;101281.41;;;36.94;100.00
35647;BME280;28680;45.642;13.756;2022-08-30T12:48:05;101266.72;;;37.19;100.00
35647;BME280;28680;45.642;13.756;2022-08-30T12:50:57;101270.84;;;37.12;100.00
35647;BME280;28680;45.642;13.756;2022-08-30T12:53:35;101264.97;;;37.63;100.00
35647;BME280;28680;45.642;13.756;2022-08-30T12:56:13;101263.41;;;37.22;100.00
35647;BME280;28680;45.642;13.756;2022-08-30T12:58:45;101262.63;;;37.46;100.00
35647;BME280;28680;45.642;13.756;2022-08-30T13:01:28;101252.59;;;37.36;100.00
35647;BME280;28680;45.642;13.756;2022-08-30T13:04:24;101247.63;;;37.68;100.00
35647;BME280;28680;45.642;13.756;2022-08-30T13:09:40;101246.59;;;37.63;100.00
35647;BME280;28680;45.642;13.756;2022-08-30T13:12:26;101241.00;;;37.98;100.00
35647;BME280;28680;45.642;13.756;2022-08-30T13:15:12;101240.59;;;37.86;100.00
35647;BME280;28680;45.642;13.756;2022-08-30T13:18:26;101229.53;;;37.72;100.00
35647;BME280;28680;45.642;13.756;2022-08-30T13:21:32;101230.25;;;38.01;100.00
35647;BME280;28680;45.642;13.756;2022-08-30T13:24:05;101226.72;;;38.44;100.00
35647;BME280;28680;45.642;13.756;2022-08-30T13:27:16;101223.00;;;38.35;99.52
35647;BME280;28680;45.642;13.756;2022-08-30T13:29:48;101227.53;;;37.24;100.00
35647;BME280;28680;45.642;13.756;2022-08-30T13:32:14;101226.09;;;36.97;100.00
35647;BME280;28680;45.642;13.756;2022-08-30T13:34:41;101230.78;;;35.92;100.00
35647;BME280;28680;45.642;13.756;2022-08-30T13:37:19;101231.72;;;36.37;100.00
35647;BME280;28680;45.642;13.756;2022-08-30T13:39:52;101225.88;;;36.49;100.00
35647;BME280;28680;45.642;13.756;2022-08-30T13:42:18;101227.81;;;36.88;100.00
35647;BME280;28680;45.642;13.756;2022-08-30T13:44:44;101222.47;;;37.41;100.00
35647;BME280;28680;45.642;13.756;2022-08-30T13:47:13;101213.56;;;37.79;100.00
35647;BME280;28680;45.642;13.756;2022-08-30T14:02:41;101210.97;;;37.39;100.00
35647;BME280;28680;45.642;13.756;2022-08-30T14:05:16;101211.19;;;37.72;100.00
35647;BME280;28680;45.642;13.756;2022-08-30T14:07:42;101212.72;;;37.30;100.00
35647;BME280;28680;45.642;13.756;2022-08-30T14:10:17;101213.13;;;36.34;100.00
35647;BME280;28680;45.642;13.756;2022-08-30T14:12:44;101211.06;;;36.05;100.00
35647;BME280;28680;45.642;13.756;2022-08-30T14:15:10;101212.03;;;35.49;100.00
35647;BME280;28680;45.642;13.756;2022-08-30T14:17:36;101205.81;;;36.14;100.00
35647;BME280;28680;45.642;13.756;2022-08-30T14:20:11;101205.75;;;36.79;100.00
35647;BME280;28680;45.642;13.756;2022-08-30T14:22:37;101202.63;;;37.25;100.00
35647;BME280;28680;45.642;13.756;2022-08-30T14:25:04;101200.88;;;36.71;100.00
35647;BME280;28680;45.642;13.756;2022-08-30T14:27:33;101197.63;;;36.19;100.00
35647;BME280;28680;45.642;13.756;2022-08-30T14:29:59;101202.66;;;36.46;100.00
35647;BME280;28680;45.642;13.756;2022-08-30T14:32:25;101196.50;;;37.04;100.00
35647;BME280;28680;45.642;13.756;2022-08-30T14:34:51;101186.69;;;37.03;100.00
35647;BME280;28680;45.642;13.756;2022-08-30T14:37:17;101185.28;;;37.06;100.00
35647;BME280;28680;45.642;13.756;2022-08-30T14:39:43;101187.03;;;36.52;100.00
35647;BME280;28680;45.642;13.756;2022-08-30T14:42:09;101194.03;;;36.29;100.00
35647;BME280;28680;45.642;13.756;2022-08-30T14:47:25;101188.16;;;36.91;100.00
35647;BME280;28680;45.642;13.756;2022-08-30T14:52:30;101180.19;;;37.23;100.00
35647;BME280;28680;45.642;13.756;2022-08-30T14:55:01;101183.59;;;36.81;100.00
35647;BME280;28680;45.642;13.756;2022-08-30T14:57:37;101175.81;;;36.93;100.00
35647;BME280;28680;45.642;13.756;2022-08-30T15:00:07;101177.25;;;36.85;100.00
35647;BME280;28680;45.642;13.756;2022-08-30T15:06:52;101169.28;;;36.89;100.00
35647;BME280;28680;45.642;13.756;2022-08-30T15:38:44;101122.50;;;36.17;100.00
35647;BME280;28680;45.642;13.756;2022-08-30T15:41:44;101124.53;;;36.40;100.00
35647;BME280;28680;45.642;13.756;2022-08-30T15:44:11;101124.13;;;35.73;100.00
35647;BME280;28680;45.642;13.756;2022-08-30T15:46:41;101118.09;;;35.66;100.00
35647;BME280;28680;45.642;13.756;2022-08-30T15:49:14;101125.50;;;35.60;100.00
35647;BME280;28680;45.642;13.756;2022-08-30T15:51:43;101125.88;;;35.18;100.00
35647;BME280;28680;45.642;13.756;2022-08-30T15:54:13;101133.00;;;35.19;100.00
35647;BME280;28680;45.642;13.756;2022-08-30T15:56:40;101130.84;;;34.90;100.00
35647;BME280;28680;45.642;13.756;2022-08-30T15:59:07;101145.78;;;34.51;100.00
35647;BME280;28680;45.642;13.756;2022-08-30T16:01:33;101139.69;;;34.13;100.00
35647;BME280;28680;45.642;13.756;2022-08-30T16:03:59;101147.28;;;34.06;100.00
35647;BME280;28680;45.642;13.756;2022-08-30T16:06:30;101137.75;;;33.93;100.00
35647;BME280;28680;45.642;13.756;2022-08-30T16:09:38;101129.22;;;33.69;100.00
35647;BME280;28680;45.642;13.756;2022-08-30T16:12:05;101134.44;;;33.86;100.00
35647;BME280;28680;45.642;13.756;2022-08-30T16:14:33;101132.78;;;33.85;100.00
35647;BME280;28680;45.642;13.756;2022-08-30T16:16:59;101122.31;;;34.40;100.00
35647;BME280;28680;45.642;13.756;2022-08-30T16:19:26;101125.06;;;34.91;100.00
35647;BME280;28680;45.642;13.756;2022-08-30T16:21:52;101127.00;;;34.91;100.00
35647;BME280;28680;45.642;13.756;2022-08-30T16:24:18;101129.44;;;34.41;100.00
35647;BME280;28680;45.642;13.756;2022-08-30T16:26:45;101134.38;;;34.75;100.00
35647;BME280;28680;45.642;13.756;2022-08-30T16:29:16;101131.09;;;34.73;100.00
35647;BME280;28680;45.642;13.756;2022-08-30T16:31:48;101129.19;;;34.68;100.00
35647;BME280;28680;45.642;13.756;2022-08-30T16:34:17;101134.31;;;34.44;100.00
35647;BME280;28680;45.642;13.756;2022-08-30T16:36:43;101133.22;;;34.40;100.00
35647;BME280;28680;45.642;13.756;2022-08-30T16:39:10;101134.03;;;34.25;100.00
35647;BME280;28680;45.642;13.756;2022-08-30T16:41:37;101146.50;;;34.11;100.00
35647;BME280;28680;45.642;13.756;2022-08-30T16:44:04;101146.16;;;33.92;100.00
35647;BME280;28680;45.642;13.756;2022-08-30T16:46:31;101139.38;;;33.99;100.00
35647;BME280;28680;45.642;13.756;2022-08-30T16:48:58;101138.66;;;34.25;100.00
35647;BME280;28680;45.642;13.756;2022-08-30T16:51:29;101134.50;;;34.07;100.00
35647;BME280;28680;45.642;13.756;2022-08-30T16:53:59;101132.78;;;33.75;100.00
35647;BME280;28680;45.642;13.756;2022-08-30T16:56:27;101130.31;;;33.73;100.00
35647;BME280;28680;45.642;13.756;2022-08-30T16:58:55;101127.34;;;33.85;100.00
35647;BME280;28680;45.642;13.756;2022-08-30T17:01:22;101128.38;;;33.64;100.00
35647;BME280;28680;45.642;13.756;2022-08-30T17:03:48;101137.84;;;33.13;100.00
35647;BME280;28680;45.642;13.756;2022-08-30T17:06:15;101138.56;;;33.03;100.00
35647;BME280;28680;45.642;13.756;2022-08-30T17:08:41;101144.66;;;32.83;100.00
35647;BME280;28680;45.642;13.756;2022-08-30T17:11:10;101151.44;;;32.54;100.00
35647;BME280;28680;45.642;13.756;2022-08-30T17:13:36;101143.25;;;32.21;100.00
35647;BME280;28680;45.642;13.756;2022-08-30T17:16:04;101145.81;;;31.67;100.00
35647;BME280;28680;45.642;13.756;2022-08-30T17:18:37;101144.19;;;31.88;100.00
35647;BME280;28680;45.642;13.756;2022-08-30T17:21:10;101146.84;;;31.44;100.00
35647;BME280;28680;45.642;13.756;2022-08-30T17:23:42;101155.38;;;31.36;100.00
35647;BME280;28680;45.642;13.756;2022-08-30T17:26:10;101153.19;;;31.33;100.00
35647;BME280;28680;45.642;13.756;2022-08-30T17:28:40;101158.47;;;31.05;100.00
35647;BME280;28680;45.642;13.756;2022-08-30T17:31:16;101147.81;;;30.87;100.00
35647;BME280;28680;45.642;13.756;2022-08-30T17:46:45;101145.28;;;30.63;100.00
35647;BME280;28680;45.642;13.756;2022-08-30T17:49:11;101147.75;;;30.65;100.00
35647;BME280;28680;45.642;13.756;2022-08-30T17:51:37;101156.66;;;30.48;100.00
35647;BME280;28680;45.642;13.756;2022-08-30T17:54:06;101162.75;;;30.56;100.00
35647;BME280;28680;45.642;13.756;2022-08-30T17:56:32;101157.78;;;30.24;100.00
35647;BME280;28680;45.642;13.756;2022-08-30T17:58:58;101156.41;;;30.21;100.00
35647;BME280;28680;45.642;13.756;2022-08-30T18:01:24;101161.81;;;30.21;100.00
35647;BME280;28680;45.642;13.756;2022-08-30T18:03:50;101165.34;;;30.22;100.00
35647;BME280;28680;45.642;13.756;2022-08-30T18:06:17;101167.75;;;30.64;100.00
35647;BME280;28680;45.642;13.756;2022-08-30T18:08:43;101165.25;;;30.45;100.00
35647;BME280;28680;45.642;13.756;2022-08-30T18:11:09;101170.75;;;30.22;100.00
35647;BME280;28680;45.642;13.756;2022-08-30T18:13:36;101171.88;;;30.38;100.00
35647;BME280;28680;45.642;13.756;2022-08-30T18:16:03;101171.25;;;30.07;100.00
35647;BME280;28680;45.642;13.756;2022-08-30T18:18:30;101178.59;;;30.35;100.00
35647;BME280;28680;45.642;13.756;2022-08-30T18:20:56;101170.41;;;30.18;100.00
35647;BME280;28680;45.642;13.756;2022-08-30T18:23:22;101173.66;;;30.32;100.00
35647;BME280;28680;45.642;13.756;2022-08-30T18:25:56;101175.53;;;29.91;100.00
35647;BME280;28680;45.642;13.756;2022-08-30T18:28:23;101170.34;;;30.01;100.00
35647;BME280;28680;45.642;13.756;2022-08-30T18:30:49;101183.28;;;29.99;100.00
35647;BME280;28680;45.642;13.756;2022-08-30T18:33:16;101170.84;;;29.86;100.00
35647;BME280;28680;45.642;13.756;2022-08-30T18:35:42;101169.09;;;29.80;100.00
35647;BME280;28680;45.642;13.756;2022-08-30T18:38:09;101168.84;;;29.70;100.00
35647;BME280;28680;45.642;13.756;2022-08-30T18:40:35;101164.25;;;29.47;100.00
35647;BME280;28680;45.642;13.756;2022-08-30T18:43:02;101161.09;;;29.50;100.00
35647;BME280;28680;45.642;13.756;2022-08-30T18:45:33;101158.28;;;29.45;100.00
35647;BME280;28680;45.642;13.756;2022-08-30T18:47:59;101157.56;;;29.49;100.00
35647;BME280;28680;45.642;13.756;2022-08-30T18:50:25;101159.22;;;29.39;100.00
35647;BME280;28680;45.642;13.756;2022-08-30T18:52:55;101155.94;;;29.37;100.00
35647;BME280;28680;45.642;13.756;2022-08-30T18:55:21;101151.13;;;29.27;100.00
35647;BME280;28680;45.642;13.756;2022-08-30T18:57:47;101166.31;;;28.97;100.00
35647;BME280;28680;45.642;13.756;2022-08-30T19:00:14;101169.72;;;28.93;100.00
35647;BME280;28680;45.642;13.756;2022-08-30T19:02:44;101176.38;;;28.78;100.00
35647;BME280;28680;45.642;13.756;2022-08-30T19:05:15;101180.72;;;28.68;100.00
35647;BME280;28680;45.642;13.756;2022-08-30T19:07:43;101176.00;;;28.75;100.00
35647;BME280;28680;45.642;13.756;2022-08-30T19:10:16;101180.09;;;28.66;100.00
35647;BME280;28680;45.642;13.756;2022-08-30T19:12:42;101186.97;;;28.80;100.00
35647;BME280;28680;45.642;13.756;2022-08-30T19:15:09;101184.59;;;28.72;100.00
35647;BME280;28680;45.642;13.756;2022-08-30T19:17:43;101193.78;;;28.52;100.00
35647;BME280;28680;45.642;13.756;2022-08-30T19:20:13;101193.84;;;28.46;100.00
35647;BME280;28680;45.642;13.756;2022-08-30T19:22:39;101178.81;;;28.68;100.00
35647;BME280;28680;45.642;13.756;2022-08-30T19:25:08;101178.91;;;28.62;100.00
35647;BME280;28680;45.642;13.756;2022-08-30T19:27:35;101185.22;;;28.55;100.00
35647;BME280;28680;45.642;13.756;2022-08-30T19:30:06;101185.59;;;28.41;100.00
35647;BME280;28680;45.642;13.756;2022-08-30T19:32:33;101184.63;;;28.35;100.00